sensor_id;sensor_type;location;lat;lon;timestamp;P1;durP1;ratioP1;P2;durP2;ratioP2
41261;SDS011;29629;52.532;13.352;2023-06-22T00:00:51;120.30;;;91.60;;
41261;SDS011;29629;52.532;13.352;2023-06-22T00:03:19;111.38;;;86.88;;
41261;SDS011;29629;52.532;13.352;2023-06-22T00:05:47;117.28;;;90.82;;
41261;SDS011;29629;52.532;13.352;2023-06-22T00:08:14;118.97;;;90.25;;
41261;SDS011;29629;52.532;13.352;2023-06-22T00:10:42;111.05;;;87.93;;
41261;SDS011;29629;52.532;13.352;2023-06-22T00:13:10;118.28;;;90.07;;
41261;SDS011;29629;52.532;13.352;2023-06-22T00:15:38;115.93;;;88.28;;
41261;SDS011;29629;52.532;13.352;2023-06-22T00:18:06;120.57;;;90.50;;
41261;SDS011;29629;52.532;13.352;2023-06-22T00:20:34;225.85;;;122.40;;
41261;SDS011;29629;52.532;13.352;2023-06-22T00:23:04;115.82;;;88.75;;
41261;SDS011;29629;52.532;13.352;2023-06-22T00:25:33;120.00;;;89.55;;
41261;SDS011;29629;52.532;13.352;2023-06-22T00:28:00;123.68;;;90.47;;
41261;SDS011;29629;52.532;13.352;2023-06-22T00:30:29;117.35;;;89.63;;
41261;SDS011;29629;52.532;13.352;2023-06-22T00:32:58;117.20;;;89.55;;
41261;SDS011;29629;52.532;13.352;2023-06-22T00:35:25;117.05;;;91.38;;
41261;SDS011;29629;52.532;13.352;2023-06-22T00:37:54;120.20;;;90.55;;
41261;SDS011;29629;52.532;13.352;2023-06-22T00:40:26;119.25;;;89.68;;
41261;SDS011;29629;52.532;13.352;2023-06-22T00:42:53;118.07;;;90.90;;
41261;SDS011;29629;52.532;13.352;2023-06-22T00:45:20;119.35;;;89.88;;
41261;SDS011;29629;52.532;13.352;2023-06-22T00:47:50;123.95;;;90.80;;
41261;SDS011;29629;52.532;13.352;2023-06-22T00:50:18;118.28;;;91.07;;
41261;SDS011;29629;52.532;13.352;2023-06-22T00:52:48;119.75;;;90.03;;
41261;SDS011;29629;52.532;13.352;2023-06-22T00:55:18;111.45;;;86.82;;
41261;SDS011;29629;52.532;13.352;2023-06-22T00:57:45;131.10;;;94.55;;
41261;SDS011;29629;52.532;13.352;2023-06-22T01:00:13;126.50;;;91.03;;
41261;SDS011;29629;52.532;13.352;2023-06-22T01:02:45;116.65;;;89.72;;
41261;SDS011;29629;52.532;13.352;2023-06-22T01:05:18;117.43;;;89.03;;
41261;SDS011;29629;52.532;13.352;2023-06-22T01:07:50;117.90;;;89.80;;
41261;SDS011;29629;52.532;13.352;2023-06-22T01:10:28;119.15;;;88.55;;
41261;SDS011;29629;52.532;13.352;2023-06-22T01:13:04;113.70;;;88.22;;
41261;SDS011;29629;52.532;13.352;2023-06-22T01:15:37;104.60;;;85.60;;
41261;SDS011;29629;52.532;13.352;2023-06-22T01:18:11;113.07;;;87.70;;
41261;SDS011;29629;52.532;13.352;2023-06-22T01:20:41;111.95;;;88.20;;
41261;SDS011;29629;52.532;13.352;2023-06-22T01:23:10;121.70;;;88.57;;
41261;SDS011;29629;52.532;13.352;2023-06-22T01:25:46;118.47;;;89.03;;
41261;SDS011;29629;52.532;13.352;2023-06-22T01:28:23;115.25;;;88.43;;
41261;SDS011;29629;52.532;13.352;2023-06-22T01:31:02;114.40;;;87.60;;
41261;SDS011;29629;52.532;13.352;2023-06-22T01:33:31;115.32;;;88.72;;
41261;SDS011;29629;52.532;13.352;2023-06-22T01:36:00;118.90;;;88.50;;
41261;SDS011;29629;52.532;13.352;2023-06-22T01:38:28;114.80;;;88.88;;
41261;SDS011;29629;52.532;13.352;2023-06-22T01:40:57;115.80;;;88.80;;
41261;SDS011;29629;52.532;13.352;2023-06-22T01:43:25;117.78;;;88.15;;
41261;SDS011;29629;52.532;13.352;2023-06-22T01:45:54;122.03;;;89.93;;
41261;SDS011;29629;52.532;13.352;2023-06-22T01:48:23;118.70;;;88.70;;
41261;SDS011;29629;52.532;13.352;2023-06-22T01:50:51;117.20;;;87.97;;
41261;SDS011;29629;52.532;13.352;2023-06-22T01:53:20;109.45;;;86.43;;
41261;SDS011;29629;52.532;13.352;2023-06-22T01:55:47;107.50;;;86.57;;
41261;SDS011;29629;52.532;13.352;2023-06-22T01:58:14;127.95;;;92.00;;
41261;SDS011;29629;52.532;13.352;2023-06-22T02:00:44;112.78;;;88.13;;
41261;SDS011;29629;52.532;13.352;2023-06-22T02:03:17;112.25;;;87.47;;
41261;SDS011;29629;52.532;13.352;2023-06-22T02:05:49;116.10;;;87.90;;
41261;SDS011;29629;52.532;13.352;2023-06-22T02:08:19;118.38;;;88.68;;
41261;SDS011;29629;52.532;13.352;2023-06-22T02:10:48;113.57;;;85.95;;
41261;SDS011;29629;52.532;13.352;2023-06-22T02:13:16;117.65;;;88.45;;
41261;SDS011;29629;52.532;13.352;2023-06-22T02:15:45;113.97;;;87.50;;
41261;SDS011;29629;52.532;13.352;2023-06-22T02:18:13;114.18;;;87.15;;
41261;SDS011;29629;52.532;13.352;2023-06-22T02:20:41;111.38;;;86.75;;
41261;SDS011;29629;52.532;13.352;2023-06-22T02:23:09;120.18;;;89.88;;
41261;SDS011;29629;52.532;13.352;2023-06-22T02:25:35;113.63;;;86.90;;
41261;SDS011;29629;52.532;13.352;2023-06-22T02:28:02;124.70;;;91.10;;
41261;SDS011;29629;52.532;13.352;2023-06-22T02:30:30;116.93;;;89.82;;
41261;SDS011;29629;52.532;13.352;2023-06-22T02:32:57;116.72;;;88.43;;
41261;SDS011;29629;52.532;13.352;2023-06-22T02:35:25;116.25;;;90.53;;
41261;SDS011;29629;52.532;13.352;2023-06-22T02:37:57;120.68;;;90.07;;
41261;SDS011;29629;52.532;13.352;2023-06-22T02:40:25;118.95;;;88.82;;
41261;SDS011;29629;52.532;13.352;2023-06-22T02:42:52;125.60;;;91.07;;
41261;SDS011;29629;52.532;13.352;2023-06-22T02:45:19;115.50;;;87.95;;
41261;SDS011;29629;52.532;13.352;2023-06-22T02:47:46;115.97;;;89.38;;
41261;SDS011;29629;52.532;13.352;2023-06-22T02:50:15;120.18;;;89.63;;
41261;SDS011;29629;52.532;13.352;2023-06-22T02:52:42;117.13;;;88.80;;
41261;SDS011;29629;52.532;13.352;2023-06-22T02:55:13;119.15;;;89.85;;
41261;SDS011;29629;52.532;13.352;2023-06-22T02:57:40;122.90;;;90.82;;
41261;SDS011;29629;52.532;13.352;2023-06-22T03:00:09;118.60;;;89.63;;
41261;SDS011;29629;52.532;13.352;2023-06-22T03:02:42;111.25;;;86.47;;
41261;SDS011;29629;52.532;13.352;2023-06-22T03:05:10;119.82;;;90.10;;
41261;SDS011;29629;52.532;13.352;2023-06-22T03:07:38;118.43;;;88.72;;
41261;SDS011;29629;52.532;13.352;2023-06-22T03:10:07;122.00;;;90.45;;
41261;SDS011;29629;52.532;13.352;2023-06-22T03:12:36;116.05;;;89.20;;
41261;SDS011;29629;52.532;13.352;2023-06-22T03:15:04;117.78;;;89.80;;
41261;SDS011;29629;52.532;13.352;2023-06-22T03:17:32;123.10;;;91.60;;
41261;SDS011;29629;52.532;13.352;2023-06-22T03:20:00;112.97;;;88.88;;
41261;SDS011;29629;52.532;13.352;2023-06-22T03:22:31;118.97;;;90.55;;
41261;SDS011;29629;52.532;13.352;2023-06-22T03:24:58;110.05;;;86.22;;
41261;SDS011;29629;52.532;13.352;2023-06-22T03:27:25;119.13;;;87.93;;
41261;SDS011;29629;52.532;13.352;2023-06-22T03:29:54;113.45;;;88.57;;
41261;SDS011;29629;52.532;13.352;2023-06-22T03:32:20;110.88;;;85.88;;
41261;SDS011;29629;52.532;13.352;2023-06-22T03:34:47;114.05;;;88.40;;
41261;SDS011;29629;52.532;13.352;2023-06-22T03:37:14;115.53;;;87.53;;
41261;SDS011;29629;52.532;13.352;2023-06-22T03:39:41;114.45;;;87.68;;
41261;SDS011;29629;52.532;13.352;2023-06-22T03:42:08;112.68;;;87.65;;
41261;SDS011;29629;52.532;13.352;2023-06-22T03:44:35;116.30;;;89.75;;
41261;SDS011;29629;52.532;13.352;2023-06-22T03:47:04;116.05;;;88.18;;
41261;SDS011;29629;52.532;13.352;2023-06-22T03:49:32;117.93;;;89.57;;
41261;SDS011;29629;52.532;13.352;2023-06-22T03:51:59;106.40;;;84.68;;
41261;SDS011;29629;52.532;13.352;2023-06-22T03:54:26;111.85;;;87.22;;
41261;SDS011;29629;52.532;13.352;2023-06-22T03:56:54;113.95;;;85.75;;
41261;SDS011;29629;52.532;13.352;2023-06-22T03:59:21;117.65;;;88.03;;
41261;SDS011;29629;52.532;13.352;2023-06-22T04:01:48;117.90;;;88.45;;
41261;SDS011;29629;52.532;13.352;2023-06-22T04:04:17;113.22;;;86.53;;
41261;SDS011;29629;52.532;13.352;2023-06-22T04:06:44;116.32;;;90.20;;
41261;SDS011;29629;52.532;13.352;2023-06-22T04:09:10;118.25;;;87.90;;
41261;SDS011;29629;52.532;13.352;2023-06-22T04:11:37;111.32;;;85.75;;
41261;SDS011;29629;52.532;13.352;2023-06-22T04:14:04;108.13;;;85.72;;
41261;SDS011;29629;52.532;13.352;2023-06-22T04:16:31;113.03;;;88.00;;
41261;SDS011;29629;52.532;13.352;2023-06-22T04:18:58;133.23;;;90.43;;
41261;SDS011;29629;52.532;13.352;2023-06-22T04:21:28;117.82;;;88.10;;
41261;SDS011;29629;52.532;13.352;2023-06-22T04:23:54;121.57;;;90.00;;
41261;SDS011;29629;52.532;13.352;2023-06-22T04:26:21;113.18;;;86.28;;
41261;SDS011;29629;52.532;13.352;2023-06-22T04:28:48;113.97;;;87.00;;
41261;SDS011;29629;52.532;13.352;2023-06-22T04:31:20;121.10;;;88.43;;
41261;SDS011;29629;52.532;13.352;2023-06-22T04:33:47;113.18;;;87.28;;
41261;SDS011;29629;52.532;13.352;2023-06-22T04:36:16;113.28;;;85.68;;
41261;SDS011;29629;52.532;13.352;2023-06-22T04:38:44;116.57;;;88.35;;
41261;SDS011;29629;52.532;13.352;2023-06-22T04:41:11;109.50;;;84.68;;
41261;SDS011;29629;52.532;13.352;2023-06-22T04:43:48;112.28;;;86.68;;
41261;SDS011;29629;52.532;13.352;2023-06-22T04:46:19;120.72;;;89.85;;
41261;SDS011;29629;52.532;13.352;2023-06-22T04:48:46;117.47;;;89.40;;
41261;SDS011;29629;52.532;13.352;2023-06-22T04:51:12;116.88;;;87.68;;
41261;SDS011;29629;52.532;13.352;2023-06-22T04:53:39;110.03;;;85.40;;
41261;SDS011;29629;52.532;13.352;2023-06-22T04:56:08;111.68;;;87.03;;
41261;SDS011;29629;52.532;13.352;2023-06-22T04:58:35;110.10;;;87.40;;
41261;SDS011;29629;52.532;13.352;2023-06-22T05:01:01;112.05;;;87.60;;
41261;SDS011;29629;52.532;13.352;2023-06-22T05:03:29;116.90;;;90.88;;
41261;SDS011;29629;52.532;13.352;2023-06-22T05:05:55;117.78;;;89.60;;
41261;SDS011;29629;52.532;13.352;2023-06-22T05:08:25;115.72;;;87.20;;
41261;SDS011;29629;52.532;13.352;2023-06-22T05:10:53;110.97;;;86.13;;
41261;SDS011;29629;52.532;13.352;2023-06-22T05:13:21;115.57;;;88.15;;
41261;SDS011;29629;52.532;13.352;2023-06-22T05:15:51;113.55;;;88.53;;
41261;SDS011;29629;52.532;13.352;2023-06-22T05:18:26;113.00;;;88.20;;
41261;SDS011;29629;52.532;13.352;2023-06-22T05:20:53;111.53;;;85.80;;
41261;SDS011;29629;52.532;13.352;2023-06-22T05:23:20;115.35;;;86.93;;
41261;SDS011;29629;52.532;13.352;2023-06-22T05:25:47;114.82;;;89.07;;
41261;SDS011;29629;52.532;13.352;2023-06-22T05:28:14;108.97;;;87.97;;
41261;SDS011;29629;52.532;13.352;2023-06-22T05:30:49;117.18;;;90.65;;
41261;SDS011;29629;52.532;13.352;2023-06-22T05:33:16;103.55;;;85.35;;
41261;SDS011;29629;52.532;13.352;2023-06-22T05:35:43;105.55;;;87.97;;
41261;SDS011;29629;52.532;13.352;2023-06-22T05:38:10;107.20;;;88.15;;
41261;SDS011;29629;52.532;13.352;2023-06-22T05:40:37;110.57;;;88.30;;
41261;SDS011;29629;52.532;13.352;2023-06-22T05:43:04;118.35;;;90.72;;
41261;SDS011;29629;52.532;13.352;2023-06-22T05:45:31;113.15;;;88.07;;
41261;SDS011;29629;52.532;13.352;2023-06-22T05:47:59;107.80;;;86.15;;
41261;SDS011;29629;52.532;13.352;2023-06-22T05:50:26;109.15;;;87.15;;
41261;SDS011;29629;52.532;13.352;2023-06-22T05:52:53;106.35;;;87.53;;
41261;SDS011;29629;52.532;13.352;2023-06-22T05:55:20;113.45;;;88.88;;
41261;SDS011;29629;52.532;13.352;2023-06-22T05:57:47;112.13;;;87.43;;
41261;SDS011;29629;52.532;13.352;2023-06-22T06:00:14;101.35;;;86.07;;
41261;SDS011;29629;52.532;13.352;2023-06-22T06:02:41;109.45;;;89.05;;
41261;SDS011;29629;52.532;13.352;2023-06-22T06:05:10;109.57;;;88.28;;
41261;SDS011;29629;52.532;13.352;2023-06-22T06:07:39;111.80;;;87.45;;
41261;SDS011;29629;52.532;13.352;2023-06-22T06:10:06;110.20;;;90.50;;
41261;SDS011;29629;52.532;13.352;2023-06-22T06:12:34;110.07;;;86.95;;
41261;SDS011;29629;52.532;13.352;2023-06-22T06:15:01;120.82;;;91.40;;
41261;SDS011;29629;52.532;13.352;2023-06-22T06:17:28;114.82;;;101.70;;
41261;SDS011;29629;52.532;13.352;2023-06-22T06:19:55;107.18;;;93.70;;
41261;SDS011;29629;52.532;13.352;2023-06-22T06:22:24;114.38;;;89.22;;
41261;SDS011;29629;52.532;13.352;2023-06-22T06:24:50;110.95;;;88.80;;
41261;SDS011;29629;52.532;13.352;2023-06-22T06:27:17;113.03;;;96.32;;
41261;SDS011;29629;52.532;13.352;2023-06-22T06:29:44;112.65;;;92.68;;
41261;SDS011;29629;52.532;13.352;2023-06-22T06:32:13;112.55;;;91.35;;
41261;SDS011;29629;52.532;13.352;2023-06-22T06:34:40;109.78;;;97.70;;
41261;SDS011;29629;52.532;13.352;2023-06-22T06:37:08;118.28;;;96.45;;
41261;SDS011;29629;52.532;13.352;2023-06-22T06:39:36;119.15;;;92.68;;
41261;SDS011;29629;52.532;13.352;2023-06-22T06:42:04;112.78;;;91.95;;
41261;SDS011;29629;52.532;13.352;2023-06-22T06:44:31;115.43;;;91.82;;
41261;SDS011;29629;52.532;13.352;2023-06-22T06:46:58;110.32;;;90.40;;
41261;SDS011;29629;52.532;13.352;2023-06-22T06:49:25;107.93;;;87.75;;
41261;SDS011;29629;52.532;13.352;2023-06-22T06:51:52;109.10;;;87.03;;
41261;SDS011;29629;52.532;13.352;2023-06-22T06:54:21;106.40;;;89.18;;
41261;SDS011;29629;52.532;13.352;2023-06-22T06:56:49;113.15;;;89.78;;
41261;SDS011;29629;52.532;13.352;2023-06-22T06:59:16;108.95;;;90.85;;
41261;SDS011;29629;52.532;13.352;2023-06-22T07:01:43;118.93;;;91.28;;
41261;SDS011;29629;52.532;13.352;2023-06-22T07:04:10;110.65;;;88.93;;
41261;SDS011;29629;52.532;13.352;2023-06-22T07:06:37;115.38;;;90.82;;
41261;SDS011;29629;52.532;13.352;2023-06-22T07:09:04;136.80;;;97.30;;
41261;SDS011;29629;52.532;13.352;2023-06-22T07:11:31;116.85;;;92.82;;
41261;SDS011;29629;52.532;13.352;2023-06-22T07:13:59;107.20;;;90.97;;
41261;SDS011;29629;52.532;13.352;2023-06-22T07:16:26;103.47;;;88.10;;
41261;SDS011;29629;52.532;13.352;2023-06-22T07:18:55;142.00;;;104.05;;
41261;SDS011;29629;52.532;13.352;2023-06-22T07:21:21;124.57;;;93.13;;
41261;SDS011;29629;52.532;13.352;2023-06-22T07:23:48;110.03;;;92.97;;
41261;SDS011;29629;52.532;13.352;2023-06-22T07:26:17;117.25;;;94.90;;
41261;SDS011;29629;52.532;13.352;2023-06-22T07:28:47;120.68;;;94.72;;
41261;SDS011;29629;52.532;13.352;2023-06-22T07:31:17;112.72;;;94.40;;
41261;SDS011;29629;52.532;13.352;2023-06-22T07:33:44;113.97;;;101.65;;
41261;SDS011;29629;52.532;13.352;2023-06-22T07:36:11;116.32;;;103.05;;
41261;SDS011;29629;52.532;13.352;2023-06-22T07:38:38;105.05;;;92.03;;
41261;SDS011;29629;52.532;13.352;2023-06-22T07:41:04;115.95;;;96.20;;
41261;SDS011;29629;52.532;13.352;2023-06-22T07:43:31;116.38;;;96.53;;
41261;SDS011;29629;52.532;13.352;2023-06-22T07:45:59;116.63;;;97.95;;
41261;SDS011;29629;52.532;13.352;2023-06-22T07:48:27;114.82;;;99.75;;
41261;SDS011;29629;52.532;13.352;2023-06-22T07:50:54;111.45;;;96.97;;
41261;SDS011;29629;52.532;13.352;2023-06-22T07:53:22;127.13;;;113.90;;
41261;SDS011;29629;52.532;13.352;2023-06-22T07:55:49;109.00;;;97.05;;
41261;SDS011;29629;52.532;13.352;2023-06-22T07:58:16;112.00;;;99.68;;
41261;SDS011;29629;52.532;13.352;2023-06-22T08:00:44;116.78;;;99.35;;
41261;SDS011;29629;52.532;13.352;2023-06-22T08:03:13;113.00;;;99.70;;
41261;SDS011;29629;52.532;13.352;2023-06-22T08:05:43;113.78;;;97.32;;
41261;SDS011;29629;52.532;13.352;2023-06-22T08:08:10;112.78;;;98.53;;
41261;SDS011;29629;52.532;13.352;2023-06-22T08:10:39;110.97;;;98.07;;
41261;SDS011;29629;52.532;13.352;2023-06-22T08:13:07;109.68;;;96.07;;
41261;SDS011;29629;52.532;13.352;2023-06-22T08:15:34;118.07;;;105.43;;
41261;SDS011;29629;52.532;13.352;2023-06-22T08:18:01;113.00;;;96.38;;
41261;SDS011;29629;52.532;13.352;2023-06-22T08:20:28;113.10;;;96.90;;
41261;SDS011;29629;52.532;13.352;2023-06-22T08:22:58;110.72;;;98.60;;
41261;SDS011;29629;52.532;13.352;2023-06-22T08:25:30;113.05;;;95.30;;
41261;SDS011;29629;52.532;13.352;2023-06-22T08:27:57;111.22;;;99.13;;
41261;SDS011;29629;52.532;13.352;2023-06-22T08:30:24;105.55;;;93.15;;
41261;SDS011;29629;52.532;13.352;2023-06-22T08:32:51;108.28;;;95.75;;
41261;SDS011;29629;52.532;13.352;2023-06-22T08:35:18;116.97;;;100.72;;
41261;SDS011;29629;52.532;13.352;2023-06-22T08:37:45;114.88;;;102.45;;
41261;SDS011;29629;52.532;13.352;2023-06-22T08:40:18;119.95;;;107.60;;
41261;SDS011;29629;52.532;13.352;2023-06-22T08:42:46;122.07;;;108.90;;
41261;SDS011;29629;52.532;13.352;2023-06-22T08:45:14;118.53;;;106.28;;
41261;SDS011;29629;52.532;13.352;2023-06-22T08:47:41;127.55;;;113.40;;
41261;SDS011;29629;52.532;13.352;2023-06-22T08:50:08;123.47;;;111.07;;
41261;SDS011;29629;52.532;13.352;2023-06-22T08:52:36;132.88;;;119.60;;
41261;SDS011;29629;52.532;13.352;2023-06-22T08:55:04;121.35;;;108.75;;
41261;SDS011;29629;52.532;13.352;2023-06-22T08:57:33;120.00;;;107.20;;
41261;SDS011;29629;52.532;13.352;2023-06-22T09:00:02;121.28;;;108.88;;
41261;SDS011;29629;52.532;13.352;2023-06-22T09:02:31;117.43;;;104.75;;
41261;SDS011;29629;52.532;13.352;2023-06-22T09:04:58;116.40;;;104.38;;
41261;SDS011;29629;52.532;13.352;2023-06-22T09:07:26;118.03;;;104.85;;
41261;SDS011;29629;52.532;13.352;2023-06-22T09:09:53;117.97;;;106.38;;
41261;SDS011;29629;52.532;13.352;2023-06-22T09:12:20;130.38;;;111.22;;
41261;SDS011;29629;52.532;13.352;2023-06-22T09:14:52;118.70;;;106.30;;
41261;SDS011;29629;52.532;13.352;2023-06-22T09:17:19;120.60;;;108.15;;
41261;SDS011;29629;52.532;13.352;2023-06-22T09:19:46;121.00;;;108.35;;
41261;SDS011;29629;52.532;13.352;2023-06-22T09:22:13;124.85;;;111.88;;
41261;SDS011;29629;52.532;13.352;2023-06-22T09:24:42;127.05;;;114.25;;
41261;SDS011;29629;52.532;13.352;2023-06-22T09:27:09;127.15;;;114.07;;
41261;SDS011;29629;52.532;13.352;2023-06-22T09:29:36;123.95;;;111.53;;
41261;SDS011;29629;52.532;13.352;2023-06-22T09:32:05;127.88;;;114.18;;
41261;SDS011;29629;52.532;13.352;2023-06-22T09:34:32;128.77;;;115.82;;
41261;SDS011;29629;52.532;13.352;2023-06-22T09:36:59;127.43;;;114.90;;
41261;SDS011;29629;52.532;13.352;2023-06-22T09:39:27;130.70;;;117.85;;
41261;SDS011;29629;52.532;13.352;2023-06-22T09:41:54;127.03;;;114.30;;
41261;SDS011;29629;52.532;13.352;2023-06-22T09:44:21;128.77;;;115.93;;
41261;SDS011;29629;52.532;13.352;2023-06-22T09:46:48;129.85;;;116.93;;
41261;SDS011;29629;52.532;13.352;2023-06-22T09:49:16;130.52;;;117.75;;
41261;SDS011;29629;52.532;13.352;2023-06-22T09:51:43;131.95;;;119.20;;
41261;SDS011;29629;52.532;13.352;2023-06-22T09:54:10;115.13;;;102.82;;
41261;SDS011;29629;52.532;13.352;2023-06-22T09:56:37;123.78;;;110.40;;
41261;SDS011;29629;52.532;13.352;2023-06-22T09:59:03;138.40;;;113.93;;
41261;SDS011;29629;52.532;13.352;2023-06-22T10:01:31;122.45;;;109.07;;
41261;SDS011;29629;52.532;13.352;2023-06-22T10:03:58;115.22;;;104.07;;
41261;SDS011;29629;52.532;13.352;2023-06-22T10:06:27;130.20;;;117.15;;
41261;SDS011;29629;52.532;13.352;2023-06-22T10:08:54;121.05;;;107.95;;
41261;SDS011;29629;52.532;13.352;2023-06-22T10:11:21;117.10;;;104.90;;
41261;SDS011;29629;52.532;13.352;2023-06-22T10:13:52;111.45;;;100.15;;
41261;SDS011;29629;52.532;13.352;2023-06-22T10:16:19;110.70;;;99.28;;
41261;SDS011;29629;52.532;13.352;2023-06-22T10:18:45;109.50;;;98.38;;
41261;SDS011;29629;52.532;13.352;2023-06-22T10:21:12;115.07;;;103.40;;
41261;SDS011;29629;52.532;13.352;2023-06-22T10:23:42;118.25;;;105.70;;
41261;SDS011;29629;52.532;13.352;2023-06-22T10:26:09;119.95;;;109.38;;
41261;SDS011;29629;52.532;13.352;2023-06-22T10:28:35;260.88;;;247.27;;
41261;SDS011;29629;52.532;13.352;2023-06-22T10:31:02;310.58;;;295.30;;
41261;SDS011;29629;52.532;13.352;2023-06-22T10:33:29;329.13;;;314.20;;
41261;SDS011;29629;52.532;13.352;2023-06-22T10:35:56;298.50;;;283.35;;
41261;SDS011;29629;52.532;13.352;2023-06-22T10:38:23;316.08;;;300.73;;
41261;SDS011;29629;52.532;13.352;2023-06-22T10:40:51;356.38;;;339.30;;
41261;SDS011;29629;52.532;13.352;2023-06-22T10:43:18;414.23;;;394.70;;
41261;SDS011;29629;52.532;13.352;2023-06-22T10:45:45;458.17;;;436.05;;
41261;SDS011;29629;52.532;13.352;2023-06-22T10:48:12;512.90;;;488.13;;
41261;SDS011;29629;52.532;13.352;2023-06-22T10:50:39;460.98;;;438.73;;
41261;SDS011;29629;52.532;13.352;2023-06-22T10:53:06;442.63;;;422.45;;
41261;SDS011;29629;52.532;13.352;2023-06-22T10:55:33;440.60;;;419.17;;
41261;SDS011;29629;52.532;13.352;2023-06-22T10:58:01;392.67;;;374.17;;
41261;SDS011;29629;52.532;13.352;2023-06-22T11:00:28;371.67;;;353.98;;
41261;SDS011;29629;52.532;13.352;2023-06-22T11:02:55;347.27;;;330.20;;
41261;SDS011;29629;52.532;13.352;2023-06-22T11:05:23;370.38;;;351.42;;
41261;SDS011;29629;52.532;13.352;2023-06-22T11:07:50;395.58;;;376.60;;
41261;SDS011;29629;52.532;13.352;2023-06-22T11:10:17;423.52;;;403.33;;
41261;SDS011;29629;52.532;13.352;2023-06-22T11:12:44;454.80;;;433.00;;
41261;SDS011;29629;52.532;13.352;2023-06-22T11:15:12;408.17;;;388.42;;
41261;SDS011;29629;52.532;13.352;2023-06-22T11:17:39;304.88;;;289.17;;
41261;SDS011;29629;52.532;13.352;2023-06-22T11:20:07;161.93;;;150.13;;
41261;SDS011;29629;52.532;13.352;2023-06-22T11:22:36;121.90;;;110.15;;
41261;SDS011;29629;52.532;13.352;2023-06-22T11:25:04;122.65;;;110.60;;
41261;SDS011;29629;52.532;13.352;2023-06-22T11:27:32;119.93;;;107.70;;
41261;SDS011;29629;52.532;13.352;2023-06-22T11:29:59;118.55;;;107.22;;
41261;SDS011;29629;52.532;13.352;2023-06-22T11:32:28;120.13;;;108.78;;
41261;SDS011;29629;52.532;13.352;2023-06-22T11:34:55;121.25;;;109.63;;
41261;SDS011;29629;52.532;13.352;2023-06-22T11:37:21;130.35;;;118.80;;
41261;SDS011;29629;52.532;13.352;2023-06-22T11:39:48;141.65;;;130.23;;
41261;SDS011;29629;52.532;13.352;2023-06-22T11:42:15;262.73;;;248.95;;
41261;SDS011;29629;52.532;13.352;2023-06-22T11:44:42;276.27;;;262.25;;
41261;SDS011;29629;52.532;13.352;2023-06-22T11:47:09;266.65;;;252.50;;
41261;SDS011;29629;52.532;13.352;2023-06-22T11:49:38;282.92;;;268.60;;
41261;SDS011;29629;52.532;13.352;2023-06-22T11:52:05;270.05;;;255.38;;
41261;SDS011;29629;52.532;13.352;2023-06-22T11:54:32;268.75;;;254.82;;
41261;SDS011;29629;52.532;13.352;2023-06-22T11:56:59;301.00;;;285.83;;
41261;SDS011;29629;52.532;13.352;2023-06-22T11:59:26;248.05;;;234.82;;
41261;SDS011;29629;52.532;13.352;2023-06-22T12:01:53;273.73;;;258.33;;
41261;SDS011;29629;52.532;13.352;2023-06-22T12:04:20;347.77;;;330.48;;
41261;SDS011;29629;52.532;13.352;2023-06-22T12:06:49;355.98;;;338.85;;
41261;SDS011;29629;52.532;13.352;2023-06-22T12:09:16;385.45;;;366.67;;
41261;SDS011;29629;52.532;13.352;2023-06-22T12:11:42;339.00;;;322.45;;
41261;SDS011;29629;52.532;13.352;2023-06-22T12:14:09;360.40;;;343.65;;
41261;SDS011;29629;52.532;13.352;2023-06-22T12:16:36;331.35;;;315.70;;
41261;SDS011;29629;52.532;13.352;2023-06-22T12:19:03;284.77;;;268.67;;
41261;SDS011;29629;52.532;13.352;2023-06-22T12:21:30;260.27;;;246.57;;
41261;SDS011;29629;52.532;13.352;2023-06-22T12:23:59;241.27;;;228.57;;
41261;SDS011;29629;52.532;13.352;2023-06-22T12:26:26;170.65;;;158.30;;
41261;SDS011;29629;52.532;13.352;2023-06-22T12:28:52;177.80;;;163.30;;
41261;SDS011;29629;52.532;13.352;2023-06-22T12:31:19;206.90;;;195.10;;
41261;SDS011;29629;52.532;13.352;2023-06-22T12:33:48;229.52;;;216.80;;
41261;SDS011;29629;52.532;13.352;2023-06-22T12:36:14;277.92;;;262.75;;
41261;SDS011;29629;52.532;13.352;2023-06-22T12:38:42;323.63;;;307.98;;
41261;SDS011;29629;52.532;13.352;2023-06-22T12:41:10;318.45;;;302.90;;
41261;SDS011;29629;52.532;13.352;2023-06-22T12:43:37;348.73;;;331.77;;
41261;SDS011;29629;52.532;13.352;2023-06-22T12:46:04;316.23;;;301.02;;
41261;SDS011;29629;52.532;13.352;2023-06-22T12:48:31;245.48;;;232.05;;
41261;SDS011;29629;52.532;13.352;2023-06-22T12:50:57;165.63;;;153.82;;
41261;SDS011;29629;52.532;13.352;2023-06-22T12:53:24;144.98;;;133.98;;
41261;SDS011;29629;52.532;13.352;2023-06-22T12:55:52;132.80;;;121.25;;
41261;SDS011;29629;52.532;13.352;2023-06-22T12:58:20;133.07;;;120.47;;
41261;SDS011;29629;52.532;13.352;2023-06-22T13:00:48;138.25;;;125.25;;
41261;SDS011;29629;52.532;13.352;2023-06-22T13:03:15;135.13;;;122.70;;
41261;SDS011;29629;52.532;13.352;2023-06-22T13:05:42;124.88;;;112.55;;
41261;SDS011;29629;52.532;13.352;2023-06-22T13:08:09;130.05;;;117.70;;
41261;SDS011;29629;52.532;13.352;2023-06-22T13:10:36;117.53;;;106.10;;
41261;SDS011;29629;52.532;13.352;2023-06-22T13:13:02;119.40;;;107.38;;
41261;SDS011;29629;52.532;13.352;2023-06-22T13:15:31;120.85;;;109.03;;
41261;SDS011;29629;52.532;13.352;2023-06-22T13:17:58;123.10;;;110.75;;
41261;SDS011;29629;52.532;13.352;2023-06-22T13:20:25;127.78;;;114.95;;
41261;SDS011;29629;52.532;13.352;2023-06-22T13:22:53;123.90;;;111.43;;
41261;SDS011;29629;52.532;13.352;2023-06-22T13:25:21;121.90;;;110.05;;
41261;SDS011;29629;52.532;13.352;2023-06-22T13:27:51;125.45;;;112.78;;
41261;SDS011;29629;52.532;13.352;2023-06-22T13:30:18;123.95;;;111.57;;
41261;SDS011;29629;52.532;13.352;2023-06-22T13:32:46;126.70;;;113.47;;
41261;SDS011;29629;52.532;13.352;2023-06-22T13:35:13;122.70;;;110.47;;
41261;SDS011;29629;52.532;13.352;2023-06-22T13:37:40;124.60;;;111.88;;
41261;SDS011;29629;52.532;13.352;2023-06-22T13:40:07;119.88;;;107.93;;
41261;SDS011;29629;52.532;13.352;2023-06-22T13:42:37;120.50;;;108.78;;
41261;SDS011;29629;52.532;13.352;2023-06-22T13:45:04;121.32;;;108.97;;
41261;SDS011;29629;52.532;13.352;2023-06-22T13:47:32;123.35;;;110.40;;
41261;SDS011;29629;52.532;13.352;2023-06-22T13:50:01;125.25;;;112.28;;
41261;SDS011;29629;52.532;13.352;2023-06-22T13:52:28;122.55;;;109.40;;
41261;SDS011;29629;52.532;13.352;2023-06-22T13:54:55;120.50;;;107.93;;